Главная страница
METAR-TAF:

METAR-TAF

Аэропорты :

Зонгулдак, Турция

широта: 41-27N, долгота: 031-48E, высота над уровнем моря: 136 м

Текущие метеонаблюдения

Эта сводка был подготовлена 1 час и 42 минут назад, в 13:50 UTC
Ветер 6 Узел от западный
Температура 20°C
Влажность 64%
Давление 1014 hPa
Видимость 10 км и более
небольшая облачность на высоте 3200 фута
Отдельные облака на высоте 10000 фута

METAR: LTAS 221350Z 27006KT 9999 FEW032 SCT100 20/13 Q1014

Время: 18:32 (15:32 UTC)

Прогноз

Эта сводка был подготовлена 1 час и 52 минут назад, в 13:40 UTC
Прогноз действительный с 22-го 15 UTC до 22-го 24 UTC
Ветер 2 Узел переменных направлений
Видимость 10 км и более
Отдельные облака на высоте 4000 фута

TAF: LTAS 221340Z 2215/2224 VRB02KT 9999 SCT040

Метеонаблюдения и прогнозы для более 4000 аэропортов (сводки METAR и TAF).

Имеющиеся станции представлены на карте желтыми и красными точками.

Чтобы увидеть название станции, наведите на нее мышь.

Затем щелкните, чтобы увидеть метеонаблюдения и метеопрогнозы.

Управление картой: чтобы увеличить масштаб, щелкните зеленые кнопки с черным крестиком; чтобы уменьшить масштаб, щелкните зеленую кнопку с тире; для просмотра соседних карт щелкайте зеленые стрелки.


METAR-TAF: